createdAt,value
2019-02-10T00:00:02.276Z,9.30
2019-02-10T00:01:02.265Z,10.70
2019-02-10T00:02:02.253Z,8.00
2019-02-10T00:03:02.280Z,7.30
2019-02-10T00:04:02.234Z,7.40
2019-02-10T00:05:02.221Z,6.80
2019-02-10T00:06:02.210Z,8.20
2019-02-10T00:07:02.202Z,9.10
2019-02-10T00:08:02.195Z,6.40
2019-02-10T00:09:02.187Z,9.70
2019-02-10T00:10:02.167Z,6.30
2019-02-10T00:11:02.156Z,8.10
2019-02-10T00:12:02.145Z,8.70
2019-02-10T00:13:02.136Z,7.90
2019-02-10T00:14:02.132Z,7.70
2019-02-10T00:15:02.112Z,8.20
2019-02-10T00:16:02.104Z,7.80
2019-02-10T00:17:02.090Z,7.50
2019-02-10T00:18:02.080Z,7.40
2019-02-10T00:19:02.079Z,8.10
2019-02-10T00:20:02.062Z,8.10
2019-02-10T00:21:02.051Z,9.40
2019-02-10T00:22:02.037Z,8.20
2019-02-10T00:23:02.026Z,8.40
2019-02-10T00:24:02.029Z,7.70
2019-02-10T00:25:02.008Z,9.20
2019-02-10T00:26:01.999Z,7.10
2019-02-10T00:27:01.984Z,8.30
2019-02-10T00:28:01.974Z,8.60
2019-02-10T00:29:01.971Z,9.00
2019-02-10T00:30:01.951Z,7.30
2019-02-10T00:31:01.942Z,10.00
2019-02-10T00:32:01.936Z,9.40
2019-02-10T00:33:01.919Z,6.10
2019-02-10T00:34:01.919Z,7.70
2019-02-10T00:35:01.901Z,6.50
2019-02-10T00:36:01.891Z,7.70
2019-02-10T00:37:01.881Z,10.50
2019-02-10T00:38:01.868Z,8.60
2019-02-10T00:39:01.882Z,8.20
2019-02-10T00:40:01.851Z,8.80
2019-02-10T00:41:01.837Z,9.80
2019-02-10T00:42:01.828Z,10.40
2019-02-10T00:43:01.816Z,8.50
2019-02-10T00:44:01.801Z,7.80
2019-02-10T00:45:01.799Z,7.80
2019-02-10T00:46:01.786Z,8.90
2019-02-10T00:47:01.770Z,8.20
2019-02-10T00:48:01.763Z,11.10
2019-02-10T00:49:01.777Z,9.40
2019-02-10T00:50:01.755Z,8.70
2019-02-10T00:51:01.727Z,8.50
2019-02-10T00:52:01.721Z,7.40
2019-02-10T00:53:01.705Z,7.80
2019-02-10T00:54:01.694Z,8.30
2019-02-10T00:55:01.699Z,9.40
2019-02-10T00:56:01.672Z,7.00
2019-02-10T00:57:01.664Z,8.00
2019-02-10T00:58:01.652Z,7.60
2019-02-10T00:59:01.641Z,8.50
2019-02-10T01:00:01.639Z,8.30
2019-02-10T01:01:01.622Z,7.10
2019-02-10T01:02:01.632Z,8.00
2019-02-10T01:03:01.598Z,9.40
2019-02-10T01:04:01.588Z,8.50
2019-02-10T01:05:01.597Z,7.70
2019-02-10T01:06:01.568Z,9.00
2019-02-10T01:07:01.559Z,10.00
2019-02-10T01:08:01.545Z,10.20
2019-02-10T01:09:01.534Z,8.40
2019-02-10T01:10:01.530Z,8.60
2019-02-10T01:11:01.515Z,10.30
2019-02-10T01:12:01.508Z,7.80
2019-02-10T01:13:01.490Z,7.40
2019-02-10T01:14:01.481Z,8.90
2019-02-10T01:15:01.479Z,8.80
2019-02-10T01:16:01.458Z,9.90
2019-02-10T01:17:01.448Z,10.20
2019-02-10T01:18:01.458Z,9.50
2019-02-10T01:19:01.427Z,11.00
2019-02-10T01:20:01.424Z,9.20
2019-02-10T01:21:01.404Z,8.90
2019-02-10T01:22:01.393Z,7.40
2019-02-10T01:23:01.383Z,8.80
2019-02-10T01:24:01.373Z,9.60
2019-02-10T01:25:01.377Z,9.80
2019-02-10T01:26:01.351Z,9.80
2019-02-10T01:27:01.341Z,11.00
2019-02-10T01:28:01.328Z,10.60
2019-02-10T01:29:01.319Z,10.30
2019-02-10T01:30:01.315Z,9.20
2019-02-10T01:31:01.295Z,7.60
2019-02-10T01:32:01.284Z,10.10
2019-02-10T01:33:01.274Z,9.40
2019-02-10T01:34:01.263Z,8.30
2019-02-10T01:35:01.265Z,9.20
2019-02-10T01:36:01.241Z,10.00
2019-02-10T01:37:01.230Z,9.50
2019-02-10T01:38:01.220Z,9.80
2019-02-10T01:39:01.209Z,9.40
2019-02-10T01:40:01.211Z,8.60
2019-02-10T01:41:01.188Z,12.90
2019-02-10T01:42:01.179Z,8.20
2019-02-10T01:43:01.165Z,11.30
2019-02-10T01:44:01.155Z,9.60
2019-02-10T01:45:01.154Z,7.10
2019-02-10T01:46:01.134Z,7.90
2019-02-10T01:47:01.124Z,9.20
2019-02-10T01:48:01.114Z,8.40
2019-02-10T01:49:01.103Z,9.40
2019-02-10T01:50:01.101Z,8.00
2019-02-10T01:51:01.080Z,7.70
2019-02-10T01:52:01.071Z,10.60
2019-02-10T01:53:01.061Z,9.20
2019-02-10T01:54:01.054Z,8.00
2019-02-10T01:55:01.050Z,9.30
2019-02-10T01:56:01.029Z,9.80
2019-02-10T01:57:01.017Z,9.90
2019-02-10T01:58:01.007Z,9.30
2019-02-10T01:59:00.999Z,9.10
2019-02-10T02:00:00.993Z,8.80
2019-02-10T02:01:00.973Z,8.90
2019-02-10T02:02:00.963Z,8.60
2019-02-10T02:03:00.952Z,7.20
2019-02-10T02:04:00.942Z,10.90
2019-02-10T02:05:00.940Z,9.20
2019-02-10T02:06:00.923Z,8.70
2019-02-10T02:07:00.911Z,9.10
2019-02-10T02:08:00.899Z,11.30
2019-02-10T02:09:00.888Z,9.70
2019-02-10T02:10:00.887Z,11.90
2019-02-10T02:11:00.866Z,10.10
2019-02-10T02:12:00.855Z,8.80
2019-02-10T02:13:00.845Z,11.30
2019-02-10T02:14:00.838Z,10.20
2019-02-10T02:15:00.831Z,8.50
2019-02-10T02:16:00.815Z,7.70
2019-02-10T02:17:00.803Z,9.40
2019-02-10T02:18:00.792Z,11.40
2019-02-10T02:19:00.781Z,8.80
2019-02-10T02:20:00.802Z,9.40
2019-02-10T02:21:00.759Z,9.70
2019-02-10T02:22:00.754Z,10.00
2019-02-10T02:23:00.746Z,9.50
2019-02-10T02:24:00.728Z,7.70
2019-02-10T02:25:00.836Z,10.90
2019-02-10T02:26:00.706Z,10.00
2019-02-10T02:27:00.698Z,10.80
2019-02-10T02:28:00.685Z,8.70
2019-02-10T02:29:00.675Z,8.60
2019-02-10T02:30:00.673Z,10.00
2019-02-10T02:31:00.670Z,10.10
2019-02-10T02:32:00.643Z,10.40
2019-02-10T02:33:00.632Z,11.50
2019-02-10T02:34:00.624Z,9.20
2019-02-10T02:35:00.625Z,10.50
2019-02-10T02:36:00.602Z,12.30
2019-02-10T02:37:07.596Z,9.50
2019-02-10T02:38:01.579Z,10.70
2019-02-10T02:39:00.571Z,8.70
2019-02-10T02:40:00.566Z,8.20
2019-02-10T02:41:00.543Z,9.70
2019-02-10T02:42:00.534Z,10.30
2019-02-10T02:43:00.527Z,11.00
2019-02-10T02:44:00.517Z,9.30
2019-02-10T02:45:00.510Z,9.00
2019-02-10T02:46:00.490Z,9.90
2019-02-10T02:47:00.479Z,11.40
2019-02-10T02:48:00.473Z,9.20
2019-02-10T02:49:00.459Z,10.50
2019-02-10T02:50:00.502Z,12.60
2019-02-10T02:51:00.965Z,7.80
2019-02-10T02:52:00.429Z,9.00
2019-02-10T02:53:00.421Z,10.60
2019-02-10T02:54:00.405Z,10.10
2019-02-10T02:55:00.411Z,8.20
2019-02-10T02:56:00.383Z,11.10
2019-02-10T02:57:00.372Z,9.50
2019-02-10T02:58:00.360Z,9.00
2019-02-10T02:59:00.349Z,7.50
2019-02-10T03:00:00.499Z,8.50
2019-02-10T03:01:00.330Z,10.90
2019-02-10T03:02:00.319Z,8.40
2019-02-10T03:03:00.321Z,8.80
2019-02-10T03:04:00.297Z,9.90
2019-02-10T03:05:00.355Z,10.70
2019-02-10T03:06:00.282Z,12.00
2019-02-10T03:07:00.266Z,10.30
2019-02-10T03:08:00.255Z,10.60
2019-02-10T03:09:00.252Z,9.60
2019-02-10T03:10:00.292Z,12.00
2019-02-10T03:11:00.229Z,11.20
2019-02-10T03:12:00.217Z,10.20
2019-02-10T03:13:00.202Z,9.20
2019-02-10T03:14:00.188Z,9.20
2019-02-10T03:15:00.344Z,10.30
2019-02-10T03:16:00.174Z,10.10
2019-02-10T03:17:00.155Z,9.40
2019-02-10T03:18:00.146Z,10.00
2019-02-10T03:19:00.133Z,9.60
2019-02-10T03:20:00.286Z,11.90
2019-02-10T03:21:00.130Z,10.20
2019-02-10T03:22:00.105Z,10.90
2019-02-10T03:23:00.102Z,8.80
2019-02-10T03:24:00.079Z,9.90
2019-02-10T03:25:00.149Z,10.70
2019-02-10T03:26:00.081Z,9.80
2019-02-10T03:27:00.047Z,10.80
2019-02-10T03:28:00.041Z,8.10
2019-02-10T03:29:00.027Z,8.20
2019-02-10T03:30:00.013Z,11.10
2019-02-10T03:31:00.012Z,8.70
2019-02-10T03:31:59.998Z,9.50
2019-02-10T03:32:59.982Z,9.80
2019-02-10T03:33:59.975Z,10.70
2019-02-10T03:34:59.970Z,9.70
2019-02-10T03:35:59.962Z,8.30
2019-02-10T03:36:59.941Z,11.00
2019-02-10T03:37:59.930Z,13.00
2019-02-10T03:38:59.916Z,7.80
2019-02-10T03:39:59.906Z,9.10
2019-02-10T03:40:59.905Z,10.50
2019-02-10T03:41:59.884Z,8.70
2019-02-10T03:42:59.874Z,10.90
2019-02-10T03:43:59.861Z,8.90
2019-02-10T03:44:59.851Z,9.30
2019-02-10T03:45:59.850Z,9.70
2019-02-10T03:46:59.830Z,11.10
2019-02-10T03:47:59.818Z,11.20
2019-02-10T03:48:59.821Z,11.30
2019-02-10T03:49:59.798Z,9.40
2019-02-10T03:50:59.794Z,11.90
2019-02-10T03:51:59.782Z,11.90
2019-02-10T03:52:59.766Z,10.00
2019-02-10T03:53:59.755Z,10.00
2019-02-10T03:54:59.745Z,10.30
2019-02-10T03:55:59.744Z,11.50
2019-02-10T03:56:59.723Z,11.60
2019-02-10T03:57:59.710Z,10.20
2019-02-10T03:58:59.703Z,10.00
2019-02-10T03:59:59.691Z,9.50
2019-02-10T04:00:59.686Z,10.70
2019-02-10T04:01:59.666Z,11.10
2019-02-10T04:02:59.656Z,11.80
2019-02-10T04:03:59.644Z,10.70
2019-02-10T04:04:59.638Z,10.00
2019-02-10T04:05:59.630Z,11.00
2019-02-10T04:06:59.612Z,9.20
2019-02-10T04:07:59.602Z,10.40
2019-02-10T04:08:59.593Z,10.40
2019-02-10T04:09:59.578Z,9.50
2019-02-10T04:10:59.579Z,9.90
2019-02-10T04:11:59.557Z,8.70
2019-02-10T04:12:59.548Z,8.80
2019-02-10T04:13:59.535Z,7.70
2019-02-10T04:14:59.526Z,9.80
2019-02-10T04:15:59.530Z,10.80
2019-02-10T04:16:59.506Z,10.50
2019-02-10T04:17:59.496Z,8.40
2019-02-10T04:18:59.483Z,10.50
2019-02-10T04:19:59.470Z,10.70
2019-02-10T04:20:59.468Z,10.20
2019-02-10T04:21:59.450Z,8.60
2019-02-10T04:22:59.438Z,11.90
2019-02-10T04:23:59.433Z,12.20
2019-02-10T04:24:59.423Z,9.80
2019-02-10T04:25:59.413Z,9.70
2019-02-10T04:26:59.395Z,8.60
2019-02-10T04:27:59.387Z,10.70
2019-02-10T04:28:59.373Z,11.00
2019-02-10T04:29:59.362Z,10.60
2019-02-10T04:30:59.361Z,10.20
2019-02-10T04:31:59.341Z,11.30
2019-02-10T04:32:59.330Z,9.50
2019-02-10T04:33:59.329Z,9.70
2019-02-10T04:34:59.309Z,10.40
2019-02-10T04:35:59.309Z,8.90
2019-02-10T04:36:59.286Z,11.80
2019-02-10T04:37:59.275Z,11.90
2019-02-10T04:38:59.267Z,11.00
2019-02-10T04:39:59.273Z,9.70
2019-02-10T04:40:59.254Z,10.50
2019-02-10T04:41:59.232Z,13.20
2019-02-10T04:42:59.222Z,8.90
2019-02-10T04:43:59.209Z,10.90
2019-02-10T04:44:59.199Z,12.60
2019-02-10T04:45:59.206Z,12.50
2019-02-10T04:46:59.197Z,10.70
2019-02-10T04:47:59.168Z,10.40
2019-02-10T04:48:59.156Z,8.20
2019-02-10T04:49:59.146Z,10.50
2019-02-10T04:50:59.144Z,10.10
2019-02-10T04:51:59.126Z,10.60
2019-02-10T04:52:59.112Z,8.40
2019-02-10T04:53:59.103Z,12.50
2019-02-10T04:54:59.091Z,11.70
2019-02-10T04:55:59.109Z,13.10
2019-02-10T04:56:59.073Z,10.10
2019-02-10T04:57:59.059Z,13.30
2019-02-10T04:58:59.047Z,10.80
2019-02-10T04:59:59.038Z,9.90
2019-02-10T05:00:59.030Z,13.30
2019-02-10T05:01:59.026Z,11.60
2019-02-10T05:02:59.004Z,14.30
2019-02-10T05:03:58.993Z,13.50
2019-02-10T05:04:58.983Z,8.90
2019-02-10T05:05:58.974Z,11.80
2019-02-10T05:06:58.970Z,12.20
2019-02-10T05:07:58.951Z,11.10
2019-02-10T05:08:58.941Z,11.70
2019-02-10T05:09:58.930Z,9.30
2019-02-10T05:10:58.918Z,10.10
2019-02-10T05:11:58.915Z,11.40
2019-02-10T05:12:58.898Z,11.60
2019-02-10T05:13:58.884Z,10.40
2019-02-10T05:14:58.875Z,10.20
2019-02-10T05:15:58.869Z,8.00
2019-02-10T05:16:58.862Z,10.80
2019-02-10T05:17:58.863Z,9.60
2019-02-10T05:18:58.833Z,10.90
2019-02-10T05:19:58.820Z,12.30
2019-02-10T05:20:58.813Z,10.90
2019-02-10T05:21:58.807Z,9.80
2019-02-10T05:22:58.787Z,10.80
2019-02-10T05:24:03.596Z,10.50
2019-02-10T05:24:58.766Z,10.60
2019-02-10T05:25:58.757Z,10.30
2019-02-10T05:26:58.781Z,10.30
2019-02-10T05:27:58.734Z,11.90
2019-02-10T05:28:58.738Z,10.20
2019-02-10T05:29:58.714Z,9.40
2019-02-10T05:30:58.715Z,11.10
2019-02-10T05:31:58.698Z,10.20
2019-02-10T05:32:58.695Z,9.30
2019-02-10T05:33:58.670Z,10.00
2019-02-10T05:34:58.658Z,10.30
2019-02-10T05:35:58.648Z,9.50
2019-02-10T05:36:58.644Z,10.90
2019-02-10T05:38:04.327Z,8.60
2019-02-10T05:38:59.617Z,10.90
2019-02-10T05:39:58.603Z,8.30
2019-02-10T05:40:58.591Z,11.30
2019-02-10T05:41:58.593Z,9.30
2019-02-10T05:42:58.569Z,8.90
2019-02-10T05:43:58.562Z,10.20
2019-02-10T05:44:58.547Z,10.10
2019-02-10T05:45:58.540Z,8.20
2019-02-10T05:46:58.538Z,9.70
2019-02-10T05:47:58.518Z,11.50
2019-02-10T05:48:58.512Z,10.60
2019-02-10T05:49:58.493Z,11.20
2019-02-10T05:50:58.482Z,7.90
2019-02-10T05:51:58.487Z,11.10
2019-02-10T05:52:58.462Z,11.60
2019-02-10T05:53:58.457Z,8.80
2019-02-10T05:54:58.439Z,10.80
2019-02-10T05:55:58.427Z,9.00
2019-02-10T05:56:58.429Z,12.70
2019-02-10T05:57:58.408Z,10.80
2019-02-10T05:58:58.430Z,10.90
2019-02-10T05:59:58.385Z,13.20
2019-02-10T06:00:58.373Z,10.80
2019-02-10T06:01:58.371Z,11.00
2019-02-10T06:02:58.351Z,8.90
2019-02-10T06:03:58.341Z,9.40
2019-02-10T06:04:58.329Z,10.60
2019-02-10T06:05:58.319Z,9.20
2019-02-10T06:06:58.318Z,9.50
2019-02-10T06:07:58.302Z,10.60
2019-02-10T06:08:58.290Z,8.00
2019-02-10T06:09:58.279Z,9.10
2019-02-10T06:10:58.271Z,13.00
2019-02-10T06:11:58.266Z,12.70
2019-02-10T06:12:58.269Z,10.00
2019-02-10T06:13:58.233Z,10.00
2019-02-10T06:14:58.222Z,10.10
2019-02-10T06:15:58.211Z,8.90
2019-02-10T06:16:58.209Z,11.40
2019-02-10T06:17:58.189Z,11.40
2019-02-10T06:18:58.178Z,12.00
2019-02-10T06:19:58.169Z,13.90
2019-02-10T06:20:58.157Z,12.50
2019-02-10T06:21:58.159Z,11.00
2019-02-10T06:22:58.137Z,12.90
2019-02-10T06:23:58.125Z,11.60
2019-02-10T06:24:58.113Z,10.40
2019-02-10T06:25:58.102Z,10.80
2019-02-10T06:26:58.102Z,10.30
2019-02-10T06:27:58.082Z,11.70
2019-02-10T06:28:58.071Z,11.20
2019-02-10T06:29:58.062Z,11.80
2019-02-10T06:30:58.051Z,10.40
2019-02-10T06:31:58.047Z,9.80
2019-02-10T06:32:58.027Z,9.30
2019-02-10T06:33:58.015Z,9.20
2019-02-10T06:34:58.017Z,10.60
2019-02-10T06:35:57.999Z,11.30
2019-02-10T06:36:57.995Z,11.80
2019-02-10T06:37:57.975Z,10.90
2019-02-10T06:38:57.977Z,10.00
2019-02-10T06:39:57.953Z,9.70
2019-02-10T06:40:57.943Z,10.20
2019-02-10T06:41:57.934Z,11.10
2019-02-10T06:42:57.928Z,9.50
2019-02-10T06:43:57.914Z,12.40
2019-02-10T06:44:57.898Z,10.60
2019-02-10T06:45:57.888Z,9.30
2019-02-10T06:46:57.878Z,11.30
2019-02-10T06:47:57.937Z,9.60
2019-02-10T06:48:57.856Z,10.30
2019-02-10T06:49:57.845Z,12.00
2019-02-10T06:50:57.836Z,9.80
2019-02-10T06:51:57.824Z,8.70
2019-02-10T06:52:57.824Z,11.10
2019-02-10T06:53:57.803Z,9.00
2019-02-10T06:54:57.794Z,12.30
2019-02-10T06:55:57.781Z,11.70
2019-02-10T06:56:57.772Z,10.60
2019-02-10T06:57:57.770Z,11.10
2019-02-10T06:58:57.748Z,8.80
2019-02-10T06:59:57.739Z,12.80
2019-02-10T07:00:57.729Z,14.60
2019-02-10T07:01:57.719Z,10.00
2019-02-10T07:02:57.715Z,12.00
2019-02-10T07:03:57.696Z,10.40
2019-02-10T07:04:57.684Z,11.00
2019-02-10T07:05:57.674Z,11.30
2019-02-10T07:06:57.665Z,11.30
2019-02-10T07:07:57.661Z,10.80
2019-02-10T07:08:57.641Z,13.20
2019-02-10T07:09:57.631Z,11.20
2019-02-10T07:10:57.620Z,10.40
2019-02-10T07:11:57.610Z,10.90
2019-02-10T07:12:57.606Z,10.20
2019-02-10T07:13:57.589Z,11.20
2019-02-10T07:14:57.577Z,11.40
2019-02-10T07:15:57.571Z,11.20
2019-02-10T07:16:57.554Z,10.20
2019-02-10T07:17:57.564Z,9.80
2019-02-10T07:18:57.539Z,11.50
2019-02-10T07:19:57.522Z,11.50
2019-02-10T07:20:57.512Z,10.80
2019-02-10T07:21:57.501Z,10.90
2019-02-10T07:22:57.492Z,10.80
2019-02-10T07:23:57.493Z,9.80
2019-02-10T07:24:57.468Z,8.80
2019-02-10T07:25:57.457Z,9.70
2019-02-10T07:26:57.448Z,8.50
2019-02-10T07:27:57.437Z,11.50
2019-02-10T07:28:57.439Z,11.30
2019-02-10T07:29:57.415Z,12.20
2019-02-10T07:30:57.405Z,11.70
2019-02-10T07:31:57.393Z,10.20
2019-02-10T07:32:57.382Z,9.20
2019-02-10T07:33:58.556Z,10.20
2019-02-10T07:34:57.367Z,8.60
2019-02-10T07:35:57.353Z,9.90
2019-02-10T07:36:57.340Z,9.40
2019-02-10T07:37:57.333Z,12.40
2019-02-10T07:38:57.329Z,11.70
2019-02-10T07:39:57.310Z,9.80
2019-02-10T07:40:57.301Z,14.30
2019-02-10T07:41:57.287Z,12.40
2019-02-10T07:42:57.277Z,10.90
2019-02-10T07:43:57.274Z,10.60
2019-02-10T07:44:57.256Z,12.80
2019-02-10T07:45:57.246Z,11.80
2019-02-10T07:46:57.233Z,12.20
2019-02-10T07:47:57.222Z,10.00
2019-02-10T07:48:57.220Z,9.70
2019-02-10T07:49:57.200Z,10.30
2019-02-10T07:50:57.190Z,9.20
2019-02-10T07:51:57.183Z,11.60
2019-02-10T07:52:57.169Z,8.90
2019-02-10T07:53:57.165Z,10.20
2019-02-10T07:54:57.151Z,10.90
2019-02-10T07:55:57.135Z,10.50
2019-02-10T07:56:57.125Z,11.90
2019-02-10T07:57:57.117Z,10.20
2019-02-10T07:58:57.125Z,11.30
2019-02-10T07:59:57.092Z,11.30
2019-02-10T08:00:57.089Z,10.80
2019-02-10T08:01:57.073Z,12.40
2019-02-10T08:02:57.062Z,10.40
2019-02-10T08:03:57.059Z,9.90
2019-02-10T08:04:57.040Z,12.40
2019-02-10T08:05:57.029Z,10.70
2019-02-10T08:06:57.019Z,10.40
2019-02-10T08:07:57.008Z,11.30
2019-02-10T08:08:57.006Z,14.00
2019-02-10T08:09:56.990Z,11.90
2019-02-10T08:10:56.975Z,10.50
2019-02-10T08:11:56.967Z,10.90
2019-02-10T08:12:56.954Z,13.90
2019-02-10T08:13:56.954Z,12.00
2019-02-10T08:14:56.936Z,13.00
2019-02-10T08:15:56.923Z,10.60
2019-02-10T08:16:56.912Z,11.90
2019-02-10T08:17:56.901Z,9.40
2019-02-10T08:18:56.898Z,11.70
2019-02-10T08:19:56.882Z,11.30
2019-02-10T08:20:56.873Z,10.50
2019-02-10T08:21:56.859Z,11.70
2019-02-10T08:22:56.847Z,10.50
2019-02-10T08:23:56.845Z,12.00
2019-02-10T08:24:56.826Z,10.40
2019-02-10T08:25:56.826Z,11.90
2019-02-10T08:26:56.804Z,12.40
2019-02-10T08:27:56.795Z,11.70
2019-02-10T08:28:56.827Z,12.80
2019-02-10T08:29:56.774Z,10.30
2019-02-10T08:30:56.762Z,12.90
2019-02-10T08:31:56.752Z,11.40
2019-02-10T08:32:56.741Z,11.90
2019-02-10T08:33:57.270Z,13.00
2019-02-10T08:34:56.726Z,13.40
2019-02-10T08:35:56.708Z,12.10
2019-02-10T08:36:56.697Z,12.40
2019-02-10T08:37:56.685Z,12.50
2019-02-10T08:38:56.681Z,10.80
2019-02-10T08:39:56.675Z,11.30
2019-02-10T08:40:56.657Z,12.50
2019-02-10T08:41:56.643Z,12.50
2019-02-10T08:42:56.634Z,11.70
2019-02-10T08:43:56.622Z,10.90
2019-02-10T08:44:56.618Z,13.20
2019-02-10T08:45:56.602Z,12.50
2019-02-10T08:46:56.593Z,10.70
2019-02-10T08:47:56.579Z,12.30
2019-02-10T08:48:56.573Z,12.20
2019-02-10T08:49:56.578Z,14.40
2019-02-10T08:50:56.548Z,13.30
2019-02-10T08:51:56.539Z,13.70
2019-02-10T08:52:56.526Z,13.00
2019-02-10T08:53:56.516Z,12.90
2019-02-10T08:54:56.513Z,11.10
2019-02-10T08:55:56.501Z,14.80
2019-02-10T08:56:56.483Z,15.10
2019-02-10T08:57:56.470Z,14.80
2019-02-10T08:58:56.460Z,13.40
2019-02-10T08:59:56.458Z,13.60
2019-02-10T09:00:56.438Z,14.00
2019-02-10T09:01:56.443Z,12.80
2019-02-10T09:02:56.421Z,15.50
2019-02-10T09:03:56.411Z,14.40
2019-02-10T09:04:56.412Z,13.30
2019-02-10T09:05:56.386Z,18.00
2019-02-10T09:06:56.382Z,13.90
2019-02-10T09:07:56.366Z,16.80
2019-02-10T09:09:02.466Z,12.10
2019-02-10T09:09:57.350Z,14.60
2019-02-10T09:10:56.333Z,13.40
2019-02-10T09:11:56.323Z,14.50
2019-02-10T09:12:56.319Z,16.60
2019-02-10T09:13:56.304Z,13.80
2019-02-10T09:14:56.298Z,14.00
2019-02-10T09:15:56.278Z,15.40
2019-02-10T09:16:56.266Z,11.90
2019-02-10T09:17:56.257Z,15.70
2019-02-10T09:18:56.248Z,16.10
2019-02-10T09:19:56.245Z,16.40
2019-02-10T09:20:56.224Z,14.30
2019-02-10T09:21:56.213Z,16.80
2019-02-10T09:22:56.202Z,16.20
2019-02-10T09:23:56.200Z,14.70
2019-02-10T09:24:56.225Z,15.90
2019-02-10T09:25:56.170Z,15.00
2019-02-10T09:26:56.158Z,17.60
2019-02-10T09:27:56.147Z,14.80
2019-02-10T09:28:56.137Z,15.90
2019-02-10T09:29:56.130Z,14.40
2019-02-10T09:30:56.126Z,16.30
2019-02-10T09:31:56.105Z,13.50
2019-02-10T09:32:56.093Z,19.50
2019-02-10T09:33:56.085Z,16.80
2019-02-10T09:34:56.077Z,19.30
2019-02-10T09:35:56.074Z,15.70
2019-02-10T09:36:56.060Z,19.00
2019-02-10T09:37:56.039Z,23.50
2019-02-10T09:38:56.029Z,14.90
2019-02-10T09:39:56.023Z,16.30
2019-02-10T09:40:56.015Z,14.80
2019-02-10T09:41:56.002Z,14.30
2019-02-10T09:42:55.990Z,17.70
2019-02-10T09:43:55.979Z,16.40
2019-02-10T09:44:55.965Z,14.80
2019-02-10T09:45:55.963Z,16.90
2019-02-10T09:46:55.943Z,14.10
2019-02-10T09:47:55.935Z,15.30
2019-02-10T09:48:55.923Z,15.50
2019-02-10T09:49:55.915Z,17.70
2019-02-10T09:50:55.913Z,15.80
2019-02-10T09:51:55.892Z,17.80
2019-02-10T09:52:55.883Z,14.40
2019-02-10T09:53:55.869Z,16.70
2019-02-10T09:54:55.859Z,18.40
2019-02-10T09:55:55.856Z,16.90
2019-02-10T09:56:55.838Z,15.20
2019-02-10T09:57:55.829Z,17.30
2019-02-10T09:58:55.817Z,15.20
2019-02-10T09:59:55.810Z,14.60
2019-02-10T10:00:55.807Z,15.70
2019-02-10T10:01:55.784Z,13.10
2019-02-10T10:02:55.774Z,15.60
2019-02-10T10:03:55.763Z,15.40
2019-02-10T10:04:55.751Z,15.90
2019-02-10T10:05:55.752Z,15.80
2019-02-10T10:06:55.730Z,15.50
2019-02-10T10:07:55.721Z,13.70
2019-02-10T10:08:55.709Z,13.80
2019-02-10T10:09:55.701Z,15.70
2019-02-10T10:10:55.700Z,15.90
2019-02-10T10:11:55.680Z,14.60
2019-02-10T10:12:55.666Z,13.60
2019-02-10T10:13:55.700Z,12.20
2019-02-10T10:14:55.646Z,13.00
2019-02-10T10:15:55.643Z,14.60
2019-02-10T10:16:55.623Z,13.70
2019-02-10T10:17:55.615Z,17.10
2019-02-10T10:18:55.603Z,14.10
2019-02-10T10:19:55.593Z,14.10
2019-02-10T10:20:55.589Z,11.60
2019-02-10T10:21:55.571Z,14.80
2019-02-10T10:22:55.563Z,15.60
2019-02-10T10:23:55.548Z,12.10
2019-02-10T10:24:55.539Z,14.50
2019-02-10T10:25:55.535Z,14.90
2019-02-10T10:26:55.517Z,15.20
2019-02-10T10:27:55.515Z,15.90
2019-02-10T10:28:55.498Z,15.10
2019-02-10T10:29:55.484Z,13.10
2019-02-10T10:30:55.482Z,14.00
2019-02-10T10:31:55.463Z,16.10
2019-02-10T10:32:55.452Z,12.90
2019-02-10T10:33:55.443Z,12.50
2019-02-10T10:34:55.431Z,12.60
2019-02-10T10:35:55.435Z,14.70
2019-02-10T10:36:55.410Z,14.00
2019-02-10T10:37:55.398Z,16.00
2019-02-10T10:38:55.387Z,12.50
2019-02-10T10:39:55.378Z,16.90
2019-02-10T10:40:55.376Z,16.90
2019-02-10T10:41:55.356Z,10.00
2019-02-10T10:42:55.349Z,15.30
2019-02-10T10:43:55.343Z,14.60
2019-02-10T10:44:55.324Z,14.10
2019-02-10T10:45:55.337Z,12.20
2019-02-10T10:46:55.327Z,14.80
2019-02-10T10:47:55.293Z,13.70
2019-02-10T10:48:55.282Z,15.80
2019-02-10T10:49:55.271Z,13.00
2019-02-10T10:50:55.268Z,16.70
2019-02-10T10:51:55.249Z,14.40
2019-02-10T10:52:55.243Z,15.80
2019-02-10T10:53:55.228Z,16.00
2019-02-10T10:54:55.216Z,15.50
2019-02-10T10:55:55.214Z,14.40
2019-02-10T10:56:55.197Z,14.30
2019-02-10T10:57:55.188Z,13.10
2019-02-10T10:58:55.174Z,13.80
2019-02-10T10:59:55.173Z,12.80
2019-02-10T11:00:55.291Z,11.90
2019-02-10T11:01:55.142Z,14.20
2019-02-10T11:02:55.134Z,10.00
2019-02-10T11:03:55.120Z,14.60
2019-02-10T11:04:55.109Z,14.60
2019-02-10T11:05:55.107Z,12.10
2019-02-10T11:06:55.088Z,13.60
2019-02-10T11:07:55.076Z,13.40
2019-02-10T11:08:55.067Z,14.60
2019-02-10T11:09:55.076Z,13.90
2019-02-10T11:10:55.105Z,16.10
2019-02-10T11:11:55.034Z,14.50
2019-02-10T11:12:55.025Z,14.50
2019-02-10T11:13:55.016Z,15.30
2019-02-10T11:14:55.003Z,11.80
2019-02-10T11:15:54.994Z,15.30
2019-02-10T11:16:54.989Z,14.00
2019-02-10T11:17:54.970Z,15.30
2019-02-10T11:18:54.960Z,14.30
2019-02-10T11:19:54.951Z,11.90
2019-02-10T11:20:54.937Z,12.00
2019-02-10T11:21:54.937Z,13.50
2019-02-10T11:22:54.918Z,14.40
2019-02-10T11:23:54.905Z,13.00
2019-02-10T11:24:54.895Z,13.90
2019-02-10T11:25:54.885Z,10.70
2019-02-10T11:26:54.883Z,18.20
2019-02-10T11:27:54.869Z,11.80
2019-02-10T11:28:54.852Z,10.10
2019-02-10T11:29:54.842Z,12.70
2019-02-10T11:30:54.833Z,13.00
2019-02-10T11:31:54.829Z,11.40
2019-02-10T11:32:54.815Z,12.70
2019-02-10T11:33:54.799Z,13.20
2019-02-10T11:34:54.787Z,14.20
2019-02-10T11:35:54.778Z,11.30
2019-02-10T11:36:54.776Z,12.20
2019-02-10T11:37:54.760Z,15.30
2019-02-10T11:38:54.744Z,10.20
2019-02-10T11:39:54.737Z,10.30
2019-02-10T11:40:54.725Z,11.10
2019-02-10T11:41:54.721Z,11.80
2019-02-10T11:42:54.703Z,11.50
2019-02-10T11:43:54.692Z,12.00
2019-02-10T11:44:54.681Z,10.20
2019-02-10T11:45:54.669Z,10.60
2019-02-10T11:46:54.671Z,14.00
2019-02-10T11:47:54.649Z,12.00
2019-02-10T11:48:54.638Z,14.70
2019-02-10T11:49:54.628Z,12.20
2019-02-10T11:50:54.617Z,9.80
2019-02-10T11:51:54.615Z,11.10
2019-02-10T11:52:54.594Z,8.70
2019-02-10T11:53:54.585Z,11.30
2019-02-10T11:54:54.574Z,11.00
2019-02-10T11:55:54.564Z,11.20
2019-02-10T11:56:54.584Z,10.10
2019-02-10T11:57:54.541Z,9.90
2019-02-10T11:58:54.530Z,13.70
2019-02-10T11:59:54.518Z,11.40
2019-02-10T12:00:54.515Z,9.20
2019-02-10T12:01:54.506Z,11.20
2019-02-10T12:02:54.495Z,10.90
2019-02-10T12:03:54.479Z,11.00
2019-02-10T12:04:54.464Z,10.70
2019-02-10T12:05:54.456Z,11.30
2019-02-10T12:06:54.445Z,10.40
2019-02-10T12:07:54.441Z,10.70
2019-02-10T12:08:54.425Z,12.80
2019-02-10T12:09:54.413Z,10.70
2019-02-10T12:10:54.399Z,11.70
2019-02-10T12:11:54.389Z,8.20
2019-02-10T12:12:54.388Z,10.50
2019-02-10T12:13:54.372Z,10.80
2019-02-10T12:14:54.360Z,12.10
2019-02-10T12:15:54.347Z,9.80
2019-02-10T12:16:54.333Z,9.00
2019-02-10T12:17:54.330Z,10.30
2019-02-10T12:18:54.316Z,9.00
2019-02-10T12:19:54.305Z,7.90
2019-02-10T12:20:54.291Z,13.00
2019-02-10T12:21:54.280Z,13.80
2019-02-10T12:22:54.278Z,8.40
2019-02-10T12:23:54.263Z,10.50
2019-02-10T12:24:54.250Z,9.00
2019-02-10T12:25:54.238Z,11.20
2019-02-10T12:26:54.226Z,9.00
2019-02-10T12:27:54.223Z,7.80
2019-02-10T12:28:54.203Z,8.80
2019-02-10T12:29:54.194Z,8.50
2019-02-10T12:30:54.183Z,9.90
2019-02-10T12:31:54.177Z,9.80
2019-02-10T12:32:54.168Z,7.20
2019-02-10T12:33:54.163Z,8.00
2019-02-10T12:34:54.138Z,9.50
2019-02-10T12:35:58.376Z,9.50
2019-02-10T12:36:54.118Z,8.60
2019-02-10T12:37:54.116Z,8.00
2019-02-10T12:38:54.095Z,8.80
2019-02-10T12:39:59.665Z,9.00
2019-02-10T12:40:55.072Z,8.40
2019-02-10T12:41:54.064Z,7.60
2019-02-10T12:42:54.060Z,8.80
2019-02-10T12:43:54.044Z,8.70
2019-02-10T12:44:54.034Z,7.20
2019-02-10T12:45:54.022Z,8.10
2019-02-10T12:46:54.014Z,7.10
2019-02-10T12:47:54.007Z,6.10
2019-02-10T12:48:53.987Z,8.60
2019-02-10T12:49:53.976Z,6.30
2019-02-10T12:50:53.964Z,7.10
2019-02-10T12:51:53.952Z,7.20
2019-02-10T12:52:53.952Z,6.10
2019-02-10T12:53:53.938Z,6.70
2019-02-10T12:54:53.924Z,8.20
2019-02-10T12:55:53.908Z,5.00
2019-02-10T12:56:53.899Z,5.70
2019-02-10T12:57:53.898Z,7.60
2019-02-10T12:58:53.877Z,8.20
2019-02-10T12:59:53.866Z,6.60
2019-02-10T13:00:53.855Z,5.80